Aviation Digital Data Service (ADDS)

Output produced by TAFs form (0053 UTC 21 November 2017)
found at http://www.aviationweather.gov/adds/tafs/
 
METAR text: RJFR 210000Z VRB01KT CAVOK 10/01 Q1027
Conditions at: RJFR (KITAKYUSHU/KOKUR, JP) observed 0000 UTC 21 November 2017
Temperature: 10.0°C (50°F)
Dewpoint: 1.0°C (34°F) [RH = 53%]
Pressure (altimeter): 30.32 inches Hg (1027.0 mb)
Winds: variable direction winds at 1 MPH (1 knots; 0.5 m/s)
Visibility: 6 or more miles (10+ km)
Ceiling: ceiling and visibility are OK
Clouds: unknown
Weather: no significant weather observed at this time

Forecast for: RJFR (KITAKYUSHU/KOKUR, JP)
Text: TAF RJFR 202310Z 2100/2206 12005KT 9999 FEW030
Forecast period: 0000 UTC 21 November 2017 to 0600 UTC 22 November 2017
Forecast type: FROM: standard forecast or significant change
Winds: from the ESE (120 degrees) at 6 MPH (5 knots; 2.6 m/s)
Visibility: 6 or more miles (10+ km)
Clouds: few clouds at 3000 feet AGL
Weather: no significant weather forecast for this period